sensor_id;sensor_type;location;lat;lon;timestamp;P1;durP1;ratioP1;P2;durP2;ratioP2
44248;SDS011;29923;48.718;9.272;2024-01-10T00:01:12;38.03;;;16.95;;
44248;SDS011;29923;48.718;9.272;2024-01-10T00:03:37;33.42;;;16.27;;
44248;SDS011;29923;48.718;9.272;2024-01-10T00:06:02;34.40;;;17.40;;
44248;SDS011;29923;48.718;9.272;2024-01-10T00:08:28;31.98;;;16.70;;
44248;SDS011;29923;48.718;9.272;2024-01-10T00:10:53;35.83;;;15.57;;
44248;SDS011;29923;48.718;9.272;2024-01-10T00:13:19;36.17;;;15.80;;
44248;SDS011;29923;48.718;9.272;2024-01-10T00:15:46;35.78;;;16.77;;
44248;SDS011;29923;48.718;9.272;2024-01-10T00:18:11;38.00;;;16.42;;
44248;SDS011;29923;48.718;9.272;2024-01-10T00:20:37;33.28;;;15.00;;
44248;SDS011;29923;48.718;9.272;2024-01-10T00:23:02;37.47;;;15.55;;
44248;SDS011;29923;48.718;9.272;2024-01-10T00:25:28;31.52;;;14.98;;
44248;SDS011;29923;48.718;9.272;2024-01-10T00:27:54;35.75;;;16.00;;
44248;SDS011;29923;48.718;9.272;2024-01-10T00:30:20;33.92;;;15.73;;
44248;SDS011;29923;48.718;9.272;2024-01-10T00:32:45;33.63;;;15.68;;
44248;SDS011;29923;48.718;9.272;2024-01-10T00:35:10;33.88;;;15.30;;
44248;SDS011;29923;48.718;9.272;2024-01-10T00:37:36;35.60;;;15.30;;
44248;SDS011;29923;48.718;9.272;2024-01-10T00:40:01;38.83;;;16.55;;
44248;SDS011;29923;48.718;9.272;2024-01-10T00:42:27;33.97;;;16.77;;
44248;SDS011;29923;48.718;9.272;2024-01-10T00:44:52;34.03;;;16.35;;
44248;SDS011;29923;48.718;9.272;2024-01-10T00:47:17;32.10;;;14.65;;
44248;SDS011;29923;48.718;9.272;2024-01-10T00:49:43;32.42;;;14.63;;
44248;SDS011;29923;48.718;9.272;2024-01-10T00:52:08;31.63;;;15.18;;
44248;SDS011;29923;48.718;9.272;2024-01-10T00:54:34;35.72;;;15.43;;
44248;SDS011;29923;48.718;9.272;2024-01-10T00:56:59;35.70;;;15.80;;
44248;SDS011;29923;48.718;9.272;2024-01-10T00:59:24;31.85;;;15.13;;
44248;SDS011;29923;48.718;9.272;2024-01-10T01:01:49;36.67;;;15.68;;
44248;SDS011;29923;48.718;9.272;2024-01-10T01:04:15;31.92;;;15.80;;
44248;SDS011;29923;48.718;9.272;2024-01-10T01:06:40;38.85;;;16.70;;
44248;SDS011;29923;48.718;9.272;2024-01-10T01:09:07;40.05;;;17.15;;
44248;SDS011;29923;48.718;9.272;2024-01-10T01:11:32;38.72;;;16.25;;
44248;SDS011;29923;48.718;9.272;2024-01-10T01:13:57;34.58;;;15.60;;
44248;SDS011;29923;48.718;9.272;2024-01-10T01:16:23;39.95;;;15.80;;
44248;SDS011;29923;48.718;9.272;2024-01-10T01:18:48;32.30;;;15.35;;
44248;SDS011;29923;48.718;9.272;2024-01-10T01:21:14;32.85;;;15.57;;
44248;SDS011;29923;48.718;9.272;2024-01-10T01:23:39;35.20;;;15.65;;
44248;SDS011;29923;48.718;9.272;2024-01-10T01:26:05;36.90;;;16.25;;
44248;SDS011;29923;48.718;9.272;2024-01-10T01:28:30;35.88;;;17.55;;
44248;SDS011;29923;48.718;9.272;2024-01-10T01:30:56;34.38;;;16.13;;
44248;SDS011;29923;48.718;9.272;2024-01-10T01:33:22;36.20;;;15.35;;
44248;SDS011;29923;48.718;9.272;2024-01-10T01:35:47;35.00;;;14.63;;
44248;SDS011;29923;48.718;9.272;2024-01-10T01:38:12;35.92;;;13.90;;
44248;SDS011;29923;48.718;9.272;2024-01-10T01:40:38;29.52;;;14.90;;
44248;SDS011;29923;48.718;9.272;2024-01-10T01:43:19;34.08;;;15.68;;
44248;SDS011;29923;48.718;9.272;2024-01-10T01:45:46;32.58;;;16.50;;
44248;SDS011;29923;48.718;9.272;2024-01-10T01:48:13;35.30;;;16.40;;
44248;SDS011;29923;48.718;9.272;2024-01-10T01:50:38;35.40;;;16.50;;
44248;SDS011;29923;48.718;9.272;2024-01-10T01:53:05;39.03;;;16.90;;
44248;SDS011;29923;48.718;9.272;2024-01-10T01:55:30;35.92;;;16.27;;
44248;SDS011;29923;48.718;9.272;2024-01-10T01:57:56;35.83;;;16.23;;
44248;SDS011;29923;48.718;9.272;2024-01-10T02:00:21;35.13;;;16.55;;
44248;SDS011;29923;48.718;9.272;2024-01-10T02:02:46;33.33;;;16.35;;
44248;SDS011;29923;48.718;9.272;2024-01-10T02:05:13;42.17;;;14.85;;
44248;SDS011;29923;48.718;9.272;2024-01-10T02:07:40;36.13;;;15.30;;
44248;SDS011;29923;48.718;9.272;2024-01-10T02:10:05;32.15;;;16.23;;
44248;SDS011;29923;48.718;9.272;2024-01-10T02:12:32;32.92;;;16.17;;
44248;SDS011;29923;48.718;9.272;2024-01-10T02:14:57;36.47;;;16.52;;
44248;SDS011;29923;48.718;9.272;2024-01-10T02:17:22;37.15;;;18.17;;
44248;SDS011;29923;48.718;9.272;2024-01-10T02:19:48;30.83;;;15.13;;
44248;SDS011;29923;48.718;9.272;2024-01-10T02:22:13;34.42;;;16.35;;
44248;SDS011;29923;48.718;9.272;2024-01-10T02:24:38;36.03;;;15.60;;
44248;SDS011;29923;48.718;9.272;2024-01-10T02:27:04;37.58;;;16.40;;
44248;SDS011;29923;48.718;9.272;2024-01-10T02:29:30;36.47;;;16.27;;
44248;SDS011;29923;48.718;9.272;2024-01-10T02:31:55;30.75;;;15.40;;
44248;SDS011;29923;48.718;9.272;2024-01-10T02:34:21;34.80;;;15.88;;
44248;SDS011;29923;48.718;9.272;2024-01-10T02:36:46;32.08;;;15.02;;
44248;SDS011;29923;48.718;9.272;2024-01-10T02:39:11;36.97;;;15.88;;
44248;SDS011;29923;48.718;9.272;2024-01-10T02:41:36;33.20;;;15.43;;
44248;SDS011;29923;48.718;9.272;2024-01-10T02:44:02;39.53;;;16.23;;
44248;SDS011;29923;48.718;9.272;2024-01-10T02:46:27;39.33;;;16.00;;
44248;SDS011;29923;48.718;9.272;2024-01-10T02:48:53;31.98;;;15.18;;
44248;SDS011;29923;48.718;9.272;2024-01-10T02:51:20;38.78;;;16.15;;
44248;SDS011;29923;48.718;9.272;2024-01-10T02:53:46;36.80;;;16.50;;
44248;SDS011;29923;48.718;9.272;2024-01-10T02:56:11;35.75;;;16.30;;
44248;SDS011;29923;48.718;9.272;2024-01-10T02:58:37;29.92;;;15.27;;
44248;SDS011;29923;48.718;9.272;2024-01-10T03:01:02;35.45;;;16.50;;
44248;SDS011;29923;48.718;9.272;2024-01-10T03:03:27;32.13;;;15.15;;
44248;SDS011;29923;48.718;9.272;2024-01-10T03:05:52;32.05;;;16.00;;
44248;SDS011;29923;48.718;9.272;2024-01-10T03:08:18;30.83;;;15.15;;
44248;SDS011;29923;48.718;9.272;2024-01-10T03:10:43;30.73;;;15.75;;
44248;SDS011;29923;48.718;9.272;2024-01-10T03:13:08;36.60;;;16.15;;
44248;SDS011;29923;48.718;9.272;2024-01-10T03:15:34;31.83;;;15.00;;
44248;SDS011;29923;48.718;9.272;2024-01-10T03:18:00;37.22;;;15.57;;
44248;SDS011;29923;48.718;9.272;2024-01-10T03:20:25;33.00;;;15.63;;
44248;SDS011;29923;48.718;9.272;2024-01-10T03:22:50;32.30;;;15.95;;
44248;SDS011;29923;48.718;9.272;2024-01-10T03:25:16;34.80;;;15.40;;
44248;SDS011;29923;48.718;9.272;2024-01-10T03:27:41;36.00;;;15.82;;
44248;SDS011;29923;48.718;9.272;2024-01-10T03:30:06;29.77;;;15.20;;
44248;SDS011;29923;48.718;9.272;2024-01-10T03:32:32;31.63;;;14.88;;
44248;SDS011;29923;48.718;9.272;2024-01-10T03:34:58;33.30;;;16.00;;
44248;SDS011;29923;48.718;9.272;2024-01-10T03:37:23;34.42;;;16.05;;
44248;SDS011;29923;48.718;9.272;2024-01-10T03:39:48;32.38;;;15.05;;
44248;SDS011;29923;48.718;9.272;2024-01-10T03:42:14;34.97;;;15.82;;
44248;SDS011;29923;48.718;9.272;2024-01-10T03:44:40;31.20;;;15.25;;
44248;SDS011;29923;48.718;9.272;2024-01-10T03:47:06;39.83;;;15.98;;
44248;SDS011;29923;48.718;9.272;2024-01-10T03:49:31;31.85;;;15.60;;
44248;SDS011;29923;48.718;9.272;2024-01-10T03:51:56;34.72;;;15.63;;
44248;SDS011;29923;48.718;9.272;2024-01-10T03:54:22;31.27;;;13.90;;
44248;SDS011;29923;48.718;9.272;2024-01-10T03:56:47;34.72;;;14.32;;
44248;SDS011;29923;48.718;9.272;2024-01-10T03:59:12;28.70;;;13.98;;
44248;SDS011;29923;48.718;9.272;2024-01-10T04:01:38;32.83;;;14.23;;
44248;SDS011;29923;48.718;9.272;2024-01-10T04:04:04;30.30;;;14.48;;
44248;SDS011;29923;48.718;9.272;2024-01-10T04:06:29;32.15;;;15.10;;
44248;SDS011;29923;48.718;9.272;2024-01-10T04:08:55;33.42;;;15.15;;
44248;SDS011;29923;48.718;9.272;2024-01-10T04:11:20;33.83;;;15.13;;
44248;SDS011;29923;48.718;9.272;2024-01-10T04:13:45;32.35;;;14.10;;
44248;SDS011;29923;48.718;9.272;2024-01-10T04:16:11;32.20;;;14.57;;
44248;SDS011;29923;48.718;9.272;2024-01-10T04:18:37;31.58;;;14.55;;
44248;SDS011;29923;48.718;9.272;2024-01-10T04:21:02;28.75;;;14.38;;
44248;SDS011;29923;48.718;9.272;2024-01-10T04:23:27;28.35;;;13.80;;
44248;SDS011;29923;48.718;9.272;2024-01-10T04:25:53;29.92;;;13.82;;
44248;SDS011;29923;48.718;9.272;2024-01-10T04:28:19;28.75;;;13.07;;
44248;SDS011;29923;48.718;9.272;2024-01-10T04:30:44;31.15;;;15.40;;
44248;SDS011;29923;48.718;9.272;2024-01-10T04:33:09;31.83;;;14.25;;
44248;SDS011;29923;48.718;9.272;2024-01-10T04:35:35;35.20;;;15.25;;
44248;SDS011;29923;48.718;9.272;2024-01-10T04:38:00;30.80;;;14.77;;
44248;SDS011;29923;48.718;9.272;2024-01-10T04:40:26;36.25;;;13.93;;
44248;SDS011;29923;48.718;9.272;2024-01-10T04:42:51;29.05;;;13.32;;
44248;SDS011;29923;48.718;9.272;2024-01-10T04:45:16;29.92;;;13.35;;
44248;SDS011;29923;48.718;9.272;2024-01-10T04:47:42;31.08;;;14.07;;
44248;SDS011;29923;48.718;9.272;2024-01-10T04:50:09;35.33;;;15.30;;
44248;SDS011;29923;48.718;9.272;2024-01-10T04:52:35;33.50;;;15.35;;
44248;SDS011;29923;48.718;9.272;2024-01-10T04:55:00;32.83;;;15.00;;
44248;SDS011;29923;48.718;9.272;2024-01-10T04:57:27;30.02;;;14.23;;
44248;SDS011;29923;48.718;9.272;2024-01-10T04:59:53;28.90;;;14.00;;
44248;SDS011;29923;48.718;9.272;2024-01-10T05:02:18;28.15;;;13.40;;
44248;SDS011;29923;48.718;9.272;2024-01-10T05:04:44;30.52;;;13.73;;
44248;SDS011;29923;48.718;9.272;2024-01-10T05:07:09;36.50;;;14.77;;
44248;SDS011;29923;48.718;9.272;2024-01-10T05:09:34;37.95;;;14.75;;
44248;SDS011;29923;48.718;9.272;2024-01-10T05:12:00;29.15;;;13.40;;
44248;SDS011;29923;48.718;9.272;2024-01-10T05:14:25;28.70;;;14.45;;
44248;SDS011;29923;48.718;9.272;2024-01-10T05:16:50;29.45;;;14.35;;
44248;SDS011;29923;48.718;9.272;2024-01-10T05:19:18;34.22;;;14.55;;
44248;SDS011;29923;48.718;9.272;2024-01-10T05:21:43;32.83;;;14.88;;
44248;SDS011;29923;48.718;9.272;2024-01-10T05:24:09;33.65;;;15.07;;
44248;SDS011;29923;48.718;9.272;2024-01-10T05:26:34;30.63;;;15.35;;
44248;SDS011;29923;48.718;9.272;2024-01-10T05:29:00;32.35;;;13.77;;
44248;SDS011;29923;48.718;9.272;2024-01-10T05:31:26;29.95;;;14.02;;
44248;SDS011;29923;48.718;9.272;2024-01-10T05:33:51;29.90;;;14.43;;
44248;SDS011;29923;48.718;9.272;2024-01-10T05:36:18;35.38;;;14.63;;
44248;SDS011;29923;48.718;9.272;2024-01-10T05:38:49;34.20;;;15.27;;
44248;SDS011;29923;48.718;9.272;2024-01-10T05:41:14;39.63;;;15.82;;
44248;SDS011;29923;48.718;9.272;2024-01-10T05:43:40;29.48;;;14.65;;
44248;SDS011;29923;48.718;9.272;2024-01-10T05:46:06;37.22;;;15.52;;
44248;SDS011;29923;48.718;9.272;2024-01-10T05:48:31;29.17;;;14.38;;
44248;SDS011;29923;48.718;9.272;2024-01-10T05:50:57;33.97;;;15.00;;
44248;SDS011;29923;48.718;9.272;2024-01-10T05:53:23;33.63;;;15.85;;
44248;SDS011;29923;48.718;9.272;2024-01-10T05:55:49;31.70;;;15.20;;
44248;SDS011;29923;48.718;9.272;2024-01-10T05:58:16;35.55;;;16.25;;
44248;SDS011;29923;48.718;9.272;2024-01-10T06:00:41;30.88;;;15.23;;
44248;SDS011;29923;48.718;9.272;2024-01-10T06:03:06;31.48;;;15.27;;
44248;SDS011;29923;48.718;9.272;2024-01-10T06:05:32;35.28;;;15.18;;
44248;SDS011;29923;48.718;9.272;2024-01-10T06:07:58;37.17;;;15.18;;
44248;SDS011;29923;48.718;9.272;2024-01-10T06:10:23;32.58;;;15.38;;
44248;SDS011;29923;48.718;9.272;2024-01-10T06:12:49;34.10;;;15.98;;
44248;SDS011;29923;48.718;9.272;2024-01-10T06:15:14;32.75;;;15.05;;
44248;SDS011;29923;48.718;9.272;2024-01-10T06:17:39;35.05;;;14.73;;
44248;SDS011;29923;48.718;9.272;2024-01-10T06:20:05;33.60;;;15.45;;
44248;SDS011;29923;48.718;9.272;2024-01-10T06:22:32;34.33;;;15.88;;
44248;SDS011;29923;48.718;9.272;2024-01-10T06:24:57;32.50;;;14.32;;
44248;SDS011;29923;48.718;9.272;2024-01-10T06:27:23;32.38;;;15.43;;
44248;SDS011;29923;48.718;9.272;2024-01-10T06:29:48;35.75;;;16.30;;
44248;SDS011;29923;48.718;9.272;2024-01-10T06:32:13;31.08;;;15.13;;
44248;SDS011;29923;48.718;9.272;2024-01-10T06:34:39;38.67;;;16.17;;
44248;SDS011;29923;48.718;9.272;2024-01-10T06:37:05;40.15;;;15.95;;
44248;SDS011;29923;48.718;9.272;2024-01-10T06:39:32;36.53;;;16.13;;
44248;SDS011;29923;48.718;9.272;2024-01-10T06:41:57;32.38;;;16.20;;
44248;SDS011;29923;48.718;9.272;2024-01-10T06:44:23;40.17;;;16.17;;
44248;SDS011;29923;48.718;9.272;2024-01-10T06:46:48;37.70;;;16.92;;
44248;SDS011;29923;48.718;9.272;2024-01-10T06:49:13;35.58;;;16.55;;
44248;SDS011;29923;48.718;9.272;2024-01-10T06:51:39;37.00;;;16.27;;
44248;SDS011;29923;48.718;9.272;2024-01-10T06:54:05;37.72;;;16.83;;
44248;SDS011;29923;48.718;9.272;2024-01-10T06:56:31;36.33;;;16.17;;
44248;SDS011;29923;48.718;9.272;2024-01-10T06:58:57;31.98;;;15.23;;
44248;SDS011;29923;48.718;9.272;2024-01-10T07:01:22;39.08;;;15.35;;
44248;SDS011;29923;48.718;9.272;2024-01-10T07:03:48;34.28;;;15.50;;
44248;SDS011;29923;48.718;9.272;2024-01-10T07:06:14;37.80;;;17.48;;
44248;SDS011;29923;48.718;9.272;2024-01-10T07:08:40;37.60;;;16.60;;
44248;SDS011;29923;48.718;9.272;2024-01-10T07:11:07;39.92;;;16.88;;
44248;SDS011;29923;48.718;9.272;2024-01-10T07:13:32;36.70;;;16.55;;
44248;SDS011;29923;48.718;9.272;2024-01-10T07:15:58;42.15;;;17.42;;
44248;SDS011;29923;48.718;9.272;2024-01-10T07:18:26;40.35;;;16.92;;
44248;SDS011;29923;48.718;9.272;2024-01-10T07:20:53;33.92;;;16.20;;
44248;SDS011;29923;48.718;9.272;2024-01-10T07:23:18;37.65;;;16.55;;
44248;SDS011;29923;48.718;9.272;2024-01-10T07:25:43;35.67;;;17.25;;
44248;SDS011;29923;48.718;9.272;2024-01-10T07:28:09;36.85;;;17.27;;
44248;SDS011;29923;48.718;9.272;2024-01-10T07:30:34;35.65;;;16.58;;
44248;SDS011;29923;48.718;9.272;2024-01-10T07:33:00;39.22;;;16.20;;
44248;SDS011;29923;48.718;9.272;2024-01-10T07:35:26;33.63;;;16.80;;
44248;SDS011;29923;48.718;9.272;2024-01-10T07:37:52;35.30;;;17.10;;
44248;SDS011;29923;48.718;9.272;2024-01-10T07:40:17;39.85;;;17.83;;
44248;SDS011;29923;48.718;9.272;2024-01-10T07:42:43;36.30;;;16.42;;
44248;SDS011;29923;48.718;9.272;2024-01-10T07:45:09;36.55;;;17.23;;
44248;SDS011;29923;48.718;9.272;2024-01-10T07:47:34;37.13;;;18.20;;
44248;SDS011;29923;48.718;9.272;2024-01-10T07:50:04;39.53;;;18.05;;
44248;SDS011;29923;48.718;9.272;2024-01-10T07:52:31;35.55;;;17.70;;
44248;SDS011;29923;48.718;9.272;2024-01-10T07:54:56;36.35;;;17.65;;
44248;SDS011;29923;48.718;9.272;2024-01-10T07:57:22;37.03;;;17.48;;
44248;SDS011;29923;48.718;9.272;2024-01-10T07:59:47;40.30;;;17.58;;
44248;SDS011;29923;48.718;9.272;2024-01-10T08:02:13;31.60;;;15.23;;
44248;SDS011;29923;48.718;9.272;2024-01-10T08:04:38;37.38;;;16.88;;
44248;SDS011;29923;48.718;9.272;2024-01-10T08:07:03;33.60;;;15.52;;
44248;SDS011;29923;48.718;9.272;2024-01-10T08:09:29;36.53;;;16.58;;
44248;SDS011;29923;48.718;9.272;2024-01-10T08:11:54;45.75;;;18.17;;
44248;SDS011;29923;48.718;9.272;2024-01-10T08:14:19;41.22;;;17.75;;
44248;SDS011;29923;48.718;9.272;2024-01-10T08:16:45;31.67;;;16.45;;
44248;SDS011;29923;48.718;9.272;2024-01-10T08:19:10;37.30;;;17.50;;
44248;SDS011;29923;48.718;9.272;2024-01-10T08:21:36;35.65;;;17.23;;
44248;SDS011;29923;48.718;9.272;2024-01-10T08:24:02;36.25;;;17.27;;
44248;SDS011;29923;48.718;9.272;2024-01-10T08:26:27;39.42;;;17.38;;
44248;SDS011;29923;48.718;9.272;2024-01-10T08:28:53;37.63;;;17.13;;
44248;SDS011;29923;48.718;9.272;2024-01-10T08:31:18;34.33;;;17.08;;
44248;SDS011;29923;48.718;9.272;2024-01-10T08:33:44;36.50;;;16.95;;
44248;SDS011;29923;48.718;9.272;2024-01-10T08:36:10;42.55;;;18.23;;
44248;SDS011;29923;48.718;9.272;2024-01-10T08:38:35;44.58;;;18.58;;
44248;SDS011;29923;48.718;9.272;2024-01-10T08:41:01;40.95;;;18.05;;
44248;SDS011;29923;48.718;9.272;2024-01-10T08:43:28;40.78;;;18.58;;
44248;SDS011;29923;48.718;9.272;2024-01-10T08:45:53;38.38;;;18.67;;
44248;SDS011;29923;48.718;9.272;2024-01-10T08:48:19;40.30;;;17.65;;
44248;SDS011;29923;48.718;9.272;2024-01-10T08:50:44;37.55;;;18.27;;
44248;SDS011;29923;48.718;9.272;2024-01-10T08:53:10;38.83;;;18.17;;
44248;SDS011;29923;48.718;9.272;2024-01-10T08:55:35;37.08;;;17.88;;
44248;SDS011;29923;48.718;9.272;2024-01-10T08:58:02;36.10;;;17.70;;
44248;SDS011;29923;48.718;9.272;2024-01-10T09:00:28;43.10;;;19.25;;
44248;SDS011;29923;48.718;9.272;2024-01-10T09:02:54;50.58;;;19.05;;
44248;SDS011;29923;48.718;9.272;2024-01-10T09:05:20;40.30;;;19.65;;
44248;SDS011;29923;48.718;9.272;2024-01-10T09:07:46;53.05;;;20.27;;
44248;SDS011;29923;48.718;9.272;2024-01-10T09:10:14;38.50;;;18.35;;
44248;SDS011;29923;48.718;9.272;2024-01-10T09:12:40;41.53;;;18.73;;
44248;SDS011;29923;48.718;9.272;2024-01-10T09:15:08;43.58;;;20.95;;
44248;SDS011;29923;48.718;9.272;2024-01-10T09:17:38;42.42;;;18.70;;
44248;SDS011;29923;48.718;9.272;2024-01-10T09:20:03;40.42;;;19.40;;
44248;SDS011;29923;48.718;9.272;2024-01-10T09:22:29;61.67;;;20.35;;
44248;SDS011;29923;48.718;9.272;2024-01-10T09:24:54;42.78;;;19.65;;
44248;SDS011;29923;48.718;9.272;2024-01-10T09:27:20;43.55;;;19.55;;
44248;SDS011;29923;48.718;9.272;2024-01-10T09:29:45;39.65;;;20.05;;
44248;SDS011;29923;48.718;9.272;2024-01-10T09:32:10;47.13;;;21.60;;
44248;SDS011;29923;48.718;9.272;2024-01-10T09:34:36;80.65;;;41.42;;
44248;SDS011;29923;48.718;9.272;2024-01-10T09:37:01;53.28;;;22.83;;
44248;SDS011;29923;48.718;9.272;2024-01-10T09:39:29;40.63;;;18.30;;
44248;SDS011;29923;48.718;9.272;2024-01-10T09:41:55;43.33;;;20.40;;
44248;SDS011;29923;48.718;9.272;2024-01-10T09:44:22;39.13;;;19.60;;
44248;SDS011;29923;48.718;9.272;2024-01-10T09:46:50;50.75;;;21.98;;
44248;SDS011;29923;48.718;9.272;2024-01-10T09:49:19;44.85;;;20.35;;
44248;SDS011;29923;48.718;9.272;2024-01-10T09:51:49;46.47;;;21.25;;
44248;SDS011;29923;48.718;9.272;2024-01-10T09:54:15;42.67;;;20.27;;
44248;SDS011;29923;48.718;9.272;2024-01-10T09:56:41;43.83;;;20.10;;
44248;SDS011;29923;48.718;9.272;2024-01-10T09:59:07;41.85;;;19.00;;
44248;SDS011;29923;48.718;9.272;2024-01-10T10:01:35;40.67;;;21.52;;
44248;SDS011;29923;48.718;9.272;2024-01-10T10:04:06;48.38;;;22.75;;
44248;SDS011;29923;48.718;9.272;2024-01-10T10:06:34;45.33;;;22.65;;
44248;SDS011;29923;48.718;9.272;2024-01-10T10:09:00;50.17;;;22.88;;
44248;SDS011;29923;48.718;9.272;2024-01-10T10:11:25;38.58;;;22.83;;
44248;SDS011;29923;48.718;9.272;2024-01-10T10:13:51;47.72;;;23.83;;
44248;SDS011;29923;48.718;9.272;2024-01-10T10:16:22;46.83;;;22.00;;
44248;SDS011;29923;48.718;9.272;2024-01-10T10:18:49;55.05;;;28.30;;
44248;SDS011;29923;48.718;9.272;2024-01-10T10:21:15;45.03;;;23.40;;
44248;SDS011;29923;48.718;9.272;2024-01-10T10:23:43;46.40;;;23.35;;
44248;SDS011;29923;48.718;9.272;2024-01-10T10:26:22;46.83;;;23.45;;
44248;SDS011;29923;48.718;9.272;2024-01-10T10:28:49;51.05;;;24.45;;
44248;SDS011;29923;48.718;9.272;2024-01-10T10:31:15;43.45;;;22.67;;
44248;SDS011;29923;48.718;9.272;2024-01-10T10:33:42;47.85;;;24.15;;
44248;SDS011;29923;48.718;9.272;2024-01-10T10:36:08;49.20;;;22.77;;
44248;SDS011;29923;48.718;9.272;2024-01-10T10:38:34;49.90;;;24.02;;
44248;SDS011;29923;48.718;9.272;2024-01-10T10:41:02;43.95;;;22.88;;
44248;SDS011;29923;48.718;9.272;2024-01-10T10:43:30;51.67;;;23.45;;
44248;SDS011;29923;48.718;9.272;2024-01-10T10:45:59;54.97;;;25.05;;
44248;SDS011;29923;48.718;9.272;2024-01-10T10:48:25;43.97;;;23.20;;
44248;SDS011;29923;48.718;9.272;2024-01-10T10:50:57;43.03;;;22.85;;
44248;SDS011;29923;48.718;9.272;2024-01-10T10:53:28;41.83;;;21.83;;
44248;SDS011;29923;48.718;9.272;2024-01-10T10:55:55;52.40;;;24.73;;
44248;SDS011;29923;48.718;9.272;2024-01-10T10:58:22;47.45;;;23.27;;
44248;SDS011;29923;48.718;9.272;2024-01-10T11:00:47;44.10;;;23.27;;
44248;SDS011;29923;48.718;9.272;2024-01-10T11:03:13;43.25;;;22.25;;
44248;SDS011;29923;48.718;9.272;2024-01-10T11:05:40;48.67;;;24.27;;
44248;SDS011;29923;48.718;9.272;2024-01-10T11:08:07;45.67;;;22.58;;
44248;SDS011;29923;48.718;9.272;2024-01-10T11:10:35;43.72;;;22.83;;
44248;SDS011;29923;48.718;9.272;2024-01-10T11:13:05;43.92;;;23.00;;
44248;SDS011;29923;48.718;9.272;2024-01-10T11:18:30;48.95;;;23.48;;
44248;SDS011;29923;48.718;9.272;2024-01-10T11:24:12;48.17;;;23.05;;
44248;SDS011;29923;48.718;9.272;2024-01-10T11:26:38;47.05;;;23.25;;
44248;SDS011;29923;48.718;9.272;2024-01-10T11:29:04;49.35;;;23.50;;
44248;SDS011;29923;48.718;9.272;2024-01-10T11:31:30;42.70;;;22.08;;
44248;SDS011;29923;48.718;9.272;2024-01-10T11:33:56;43.85;;;22.92;;
44248;SDS011;29923;48.718;9.272;2024-01-10T11:36:22;49.92;;;24.42;;
44248;SDS011;29923;48.718;9.272;2024-01-10T11:41:24;43.15;;;23.98;;
44248;SDS011;29923;48.718;9.272;2024-01-10T11:46:39;45.10;;;23.45;;
44248;SDS011;29923;48.718;9.272;2024-01-10T11:49:11;49.33;;;24.77;;
44248;SDS011;29923;48.718;9.272;2024-01-10T11:51:41;47.45;;;24.10;;
44248;SDS011;29923;48.718;9.272;2024-01-10T11:54:07;46.70;;;24.42;;
44248;SDS011;29923;48.718;9.272;2024-01-10T11:56:39;60.88;;;25.38;;
44248;SDS011;29923;48.718;9.272;2024-01-10T11:59:06;101.20;;;56.33;;
44248;SDS011;29923;48.718;9.272;2024-01-10T12:01:43;47.28;;;24.80;;
44248;SDS011;29923;48.718;9.272;2024-01-10T12:04:08;52.13;;;25.30;;
44248;SDS011;29923;48.718;9.272;2024-01-10T12:06:35;48.67;;;25.55;;
44248;SDS011;29923;48.718;9.272;2024-01-10T12:09:01;59.13;;;25.90;;
44248;SDS011;29923;48.718;9.272;2024-01-10T12:11:33;44.65;;;24.73;;
44248;SDS011;29923;48.718;9.272;2024-01-10T12:13:59;48.15;;;25.17;;
44248;SDS011;29923;48.718;9.272;2024-01-10T12:16:25;51.15;;;26.52;;
44248;SDS011;29923;48.718;9.272;2024-01-10T12:18:50;49.75;;;25.10;;
44248;SDS011;29923;48.718;9.272;2024-01-10T12:21:16;99.88;;;53.47;;
44248;SDS011;29923;48.718;9.272;2024-01-10T12:23:42;51.92;;;24.92;;
44248;SDS011;29923;48.718;9.272;2024-01-10T12:26:09;49.63;;;25.45;;
44248;SDS011;29923;48.718;9.272;2024-01-10T12:28:38;42.53;;;23.70;;
44248;SDS011;29923;48.718;9.272;2024-01-10T12:31:04;50.63;;;24.95;;
44248;SDS011;29923;48.718;9.272;2024-01-10T12:33:30;50.22;;;25.17;;
44248;SDS011;29923;48.718;9.272;2024-01-10T12:36:11;55.08;;;24.63;;
44248;SDS011;29923;48.718;9.272;2024-01-10T12:38:40;49.08;;;25.50;;
44248;SDS011;29923;48.718;9.272;2024-01-10T12:41:06;48.22;;;25.23;;
44248;SDS011;29923;48.718;9.272;2024-01-10T12:43:33;50.03;;;26.75;;
44248;SDS011;29923;48.718;9.272;2024-01-10T12:46:03;49.22;;;25.95;;
44248;SDS011;29923;48.718;9.272;2024-01-10T12:48:29;46.95;;;24.15;;
44248;SDS011;29923;48.718;9.272;2024-01-10T12:50:55;43.85;;;22.42;;
44248;SDS011;29923;48.718;9.272;2024-01-10T12:53:20;44.80;;;25.23;;
44248;SDS011;29923;48.718;9.272;2024-01-10T12:55:46;44.70;;;24.30;;
44248;SDS011;29923;48.718;9.272;2024-01-10T12:58:11;46.47;;;23.55;;
44248;SDS011;29923;48.718;9.272;2024-01-10T13:00:37;48.22;;;24.05;;
44248;SDS011;29923;48.718;9.272;2024-01-10T13:03:02;49.97;;;24.15;;
44248;SDS011;29923;48.718;9.272;2024-01-10T13:05:28;45.58;;;24.75;;
44248;SDS011;29923;48.718;9.272;2024-01-10T13:07:54;46.53;;;23.85;;
44248;SDS011;29923;48.718;9.272;2024-01-10T13:10:20;41.28;;;22.88;;
44248;SDS011;29923;48.718;9.272;2024-01-10T13:12:45;44.40;;;22.70;;
44248;SDS011;29923;48.718;9.272;2024-01-10T13:15:12;49.80;;;24.08;;
44248;SDS011;29923;48.718;9.272;2024-01-10T13:17:37;52.33;;;24.95;;
44248;SDS011;29923;48.718;9.272;2024-01-10T13:20:03;49.03;;;23.95;;
44248;SDS011;29923;48.718;9.272;2024-01-10T13:22:28;50.38;;;24.27;;
44248;SDS011;29923;48.718;9.272;2024-01-10T13:24:54;43.42;;;22.70;;
44248;SDS011;29923;48.718;9.272;2024-01-10T13:27:20;46.05;;;24.83;;
44248;SDS011;29923;48.718;9.272;2024-01-10T13:29:46;66.00;;;31.30;;
44248;SDS011;29923;48.718;9.272;2024-01-10T13:32:11;50.30;;;24.10;;
44248;SDS011;29923;48.718;9.272;2024-01-10T13:34:36;49.83;;;24.42;;
44248;SDS011;29923;48.718;9.272;2024-01-10T13:37:02;50.40;;;25.02;;
44248;SDS011;29923;48.718;9.272;2024-01-10T13:39:27;44.88;;;24.00;;
44248;SDS011;29923;48.718;9.272;2024-01-10T13:41:52;48.40;;;24.40;;
44248;SDS011;29923;48.718;9.272;2024-01-10T13:44:18;49.85;;;26.45;;
44248;SDS011;29923;48.718;9.272;2024-01-10T13:46:43;51.70;;;25.98;;
44248;SDS011;29923;48.718;9.272;2024-01-10T13:49:09;51.30;;;26.80;;
44248;SDS011;29923;48.718;9.272;2024-01-10T13:51:34;47.33;;;24.10;;
44248;SDS011;29923;48.718;9.272;2024-01-10T13:54:00;48.85;;;25.80;;
44248;SDS011;29923;48.718;9.272;2024-01-10T13:56:25;44.85;;;23.42;;
44248;SDS011;29923;48.718;9.272;2024-01-10T13:58:52;45.65;;;23.55;;
44248;SDS011;29923;48.718;9.272;2024-01-10T14:01:18;48.67;;;23.80;;
44248;SDS011;29923;48.718;9.272;2024-01-10T14:03:43;53.50;;;25.60;;
44248;SDS011;29923;48.718;9.272;2024-01-10T14:06:08;48.63;;;24.98;;
44248;SDS011;29923;48.718;9.272;2024-01-10T14:08:34;41.47;;;24.30;;
44248;SDS011;29923;48.718;9.272;2024-01-10T14:11:02;46.85;;;24.67;;
44248;SDS011;29923;48.718;9.272;2024-01-10T14:13:28;46.78;;;24.52;;
44248;SDS011;29923;48.718;9.272;2024-01-10T14:15:53;42.33;;;23.27;;
44248;SDS011;29923;48.718;9.272;2024-01-10T14:18:19;50.03;;;24.02;;
44248;SDS011;29923;48.718;9.272;2024-01-10T14:20:46;43.25;;;24.00;;
44248;SDS011;29923;48.718;9.272;2024-01-10T14:23:11;46.20;;;22.92;;
44248;SDS011;29923;48.718;9.272;2024-01-10T14:25:37;43.10;;;22.83;;